sensor_id;sensor_type;location;lat;lon;timestamp;pressure;altitude;pressure_sealevel;temperature;humidity
49102;BME280;34913;47.520;19.186;2023-04-15T00:00:13;98857.50;;;5.52;100.00
49102;BME280;34913;47.520;19.186;2023-04-15T00:02:40;98861.09;;;5.63;100.00
49102;BME280;34913;47.520;19.186;2023-04-15T00:05:06;98860.34;;;5.72;100.00
49102;BME280;34913;47.520;19.186;2023-04-15T00:07:31;98862.28;;;5.70;100.00
49102;BME280;34913;47.520;19.186;2023-04-15T00:09:57;98864.28;;;5.77;100.00
49102;BME280;34913;47.520;19.186;2023-04-15T00:12:26;98861.97;;;5.84;100.00
49102;BME280;34913;47.520;19.186;2023-04-15T00:14:52;98867.00;;;5.87;100.00
49102;BME280;34913;47.520;19.186;2023-04-15T00:17:17;98869.88;;;5.84;100.00
49102;BME280;34913;47.520;19.186;2023-04-15T00:19:43;98865.56;;;5.83;100.00
49102;BME280;34913;47.520;19.186;2023-04-15T00:22:12;98866.66;;;5.80;100.00
49102;BME280;34913;47.520;19.186;2023-04-15T00:24:38;98870.84;;;5.83;100.00
49102;BME280;34913;47.520;19.186;2023-04-15T00:27:03;98865.13;;;5.78;100.00
49102;BME280;34913;47.520;19.186;2023-04-15T00:29:29;98869.16;;;5.82;100.00
49102;BME280;34913;47.520;19.186;2023-04-15T00:31:55;98864.59;;;5.84;100.00
49102;BME280;34913;47.520;19.186;2023-04-15T00:34:24;98865.91;;;5.89;100.00
49102;BME280;34913;47.520;19.186;2023-04-15T00:36:50;98856.34;;;5.88;100.00
49102;BME280;34913;47.520;19.186;2023-04-15T00:39:16;98868.69;;;5.88;100.00
49102;BME280;34913;47.520;19.186;2023-04-15T00:41:42;98860.06;;;5.86;100.00
49102;BME280;34913;47.520;19.186;2023-04-15T00:44:08;98854.44;;;5.91;100.00
49102;BME280;34913;47.520;19.186;2023-04-15T00:46:35;98856.59;;;5.97;100.00
49102;BME280;34913;47.520;19.186;2023-04-15T00:49:03;98856.94;;;6.03;100.00
49102;BME280;34913;47.520;19.186;2023-04-15T00:51:29;98860.78;;;6.20;100.00
49102;BME280;34913;47.520;19.186;2023-04-15T00:53:56;98860.22;;;6.17;100.00
49102;BME280;34913;47.520;19.186;2023-04-15T00:56:22;98851.59;;;6.14;100.00
49102;BME280;34913;47.520;19.186;2023-04-15T00:58:49;98852.06;;;6.20;100.00
49102;BME280;34913;47.520;19.186;2023-04-15T01:01:18;98853.84;;;6.19;100.00
49102;BME280;34913;47.520;19.186;2023-04-15T01:03:46;98850.44;;;6.07;100.00
49102;BME280;34913;47.520;19.186;2023-04-15T01:06:12;98843.88;;;6.02;100.00
49102;BME280;34913;47.520;19.186;2023-04-15T01:08:38;98849.84;;;6.04;100.00
49102;BME280;34913;47.520;19.186;2023-04-15T01:11:03;98838.94;;;6.08;100.00
49102;BME280;34913;47.520;19.186;2023-04-15T01:13:30;98840.41;;;6.01;100.00
49102;BME280;34913;47.520;19.186;2023-04-15T01:15:57;98844.13;;;5.99;100.00
49102;BME280;34913;47.520;19.186;2023-04-15T01:18:23;98843.16;;;6.00;100.00
49102;BME280;34913;47.520;19.186;2023-04-15T01:20:48;98847.00;;;5.96;100.00
49102;BME280;34913;47.520;19.186;2023-04-15T01:23:14;98845.25;;;5.85;100.00
49102;BME280;34913;47.520;19.186;2023-04-15T01:25:42;98841.88;;;5.83;100.00
49102;BME280;34913;47.520;19.186;2023-04-15T01:28:08;98848.81;;;5.84;100.00
49102;BME280;34913;47.520;19.186;2023-04-15T01:30:35;98844.00;;;5.89;100.00
49102;BME280;34913;47.520;19.186;2023-04-15T01:33:00;98844.75;;;5.91;100.00
49102;BME280;34913;47.520;19.186;2023-04-15T01:35:26;98855.19;;;5.93;100.00
49102;BME280;34913;47.520;19.186;2023-04-15T01:37:52;98850.59;;;5.83;100.00
49102;BME280;34913;47.520;19.186;2023-04-15T01:40:19;98850.72;;;5.82;100.00
49102;BME280;34913;47.520;19.186;2023-04-15T01:42:45;98856.69;;;5.84;100.00
49102;BME280;34913;47.520;19.186;2023-04-15T01:45:11;98851.91;;;5.89;100.00
49102;BME280;34913;47.520;19.186;2023-04-15T01:47:38;98863.09;;;5.93;100.00
49102;BME280;34913;47.520;19.186;2023-04-15T01:50:04;98853.31;;;6.04;100.00
49102;BME280;34913;47.520;19.186;2023-04-15T01:52:30;98856.03;;;6.14;100.00
49102;BME280;34913;47.520;19.186;2023-04-15T01:54:56;98860.94;;;6.19;100.00
49102;BME280;34913;47.520;19.186;2023-04-15T01:57:21;98855.25;;;6.23;100.00
49102;BME280;34913;47.520;19.186;2023-04-15T01:59:47;98854.69;;;6.20;100.00
49102;BME280;34913;47.520;19.186;2023-04-15T02:02:12;98860.03;;;6.08;100.00
49102;BME280;34913;47.520;19.186;2023-04-15T02:04:38;98850.22;;;5.99;100.00
49102;BME280;34913;47.520;19.186;2023-04-15T02:07:03;98862.13;;;5.94;100.00
49102;BME280;34913;47.520;19.186;2023-04-15T02:09:28;98858.00;;;5.89;100.00
49102;BME280;34913;47.520;19.186;2023-04-15T02:11:54;98864.50;;;5.85;100.00
49102;BME280;34913;47.520;19.186;2023-04-15T02:14:20;98861.41;;;5.80;100.00
49102;BME280;34913;47.520;19.186;2023-04-15T02:16:45;98849.94;;;5.70;100.00
49102;BME280;34913;47.520;19.186;2023-04-15T02:19:11;98856.03;;;5.71;100.00
49102;BME280;34913;47.520;19.186;2023-04-15T02:21:37;98854.69;;;5.76;100.00
49102;BME280;34913;47.520;19.186;2023-04-15T02:24:02;98855.44;;;5.78;100.00
49102;BME280;34913;47.520;19.186;2023-04-15T02:26:28;98857.31;;;5.87;100.00
49102;BME280;34913;47.520;19.186;2023-04-15T02:28:56;98854.75;;;6.08;100.00
49102;BME280;34913;47.520;19.186;2023-04-15T02:31:22;98859.63;;;6.13;100.00
49102;BME280;34913;47.520;19.186;2023-04-15T02:33:47;98858.78;;;6.12;100.00
49102;BME280;34913;47.520;19.186;2023-04-15T02:36:13;98859.75;;;6.11;100.00
49102;BME280;34913;47.520;19.186;2023-04-15T02:38:38;98868.84;;;6.19;100.00
49102;BME280;34913;47.520;19.186;2023-04-15T02:41:10;98868.56;;;6.22;100.00
49102;BME280;34913;47.520;19.186;2023-04-15T02:43:35;98868.84;;;6.19;100.00
49102;BME280;34913;47.520;19.186;2023-04-15T02:46:02;98877.06;;;6.25;100.00
49102;BME280;34913;47.520;19.186;2023-04-15T02:48:28;98872.25;;;6.30;100.00
49102;BME280;34913;47.520;19.186;2023-04-15T02:50:53;98864.94;;;6.34;100.00
49102;BME280;34913;47.520;19.186;2023-04-15T02:53:34;98874.69;;;6.43;100.00
49102;BME280;34913;47.520;19.186;2023-04-15T02:56:00;98873.41;;;6.58;100.00
49102;BME280;34913;47.520;19.186;2023-04-15T02:58:26;98867.19;;;6.59;100.00
49102;BME280;34913;47.520;19.186;2023-04-15T03:00:51;98866.34;;;6.59;100.00
49102;BME280;34913;47.520;19.186;2023-04-15T03:03:16;98859.28;;;6.59;100.00
49102;BME280;34913;47.520;19.186;2023-04-15T03:05:43;98863.53;;;6.51;100.00
49102;BME280;34913;47.520;19.186;2023-04-15T03:08:08;98861.03;;;6.49;100.00
49102;BME280;34913;47.520;19.186;2023-04-15T03:10:34;98860.63;;;6.33;100.00
49102;BME280;34913;47.520;19.186;2023-04-15T03:12:59;98858.94;;;6.32;100.00
49102;BME280;34913;47.520;19.186;2023-04-15T03:15:25;98855.94;;;6.36;100.00
49102;BME280;34913;47.520;19.186;2023-04-15T03:17:51;98855.78;;;6.38;100.00
49102;BME280;34913;47.520;19.186;2023-04-15T03:20:16;98848.47;;;6.41;100.00
49102;BME280;34913;47.520;19.186;2023-04-15T03:22:42;98847.06;;;6.37;100.00
49102;BME280;34913;47.520;19.186;2023-04-15T03:25:07;98849.69;;;6.37;100.00
49102;BME280;34913;47.520;19.186;2023-04-15T03:27:33;98850.00;;;6.44;100.00
49102;BME280;34913;47.520;19.186;2023-04-15T03:29:58;98850.84;;;6.44;100.00
49102;BME280;34913;47.520;19.186;2023-04-15T03:32:24;98848.72;;;6.38;100.00
49102;BME280;34913;47.520;19.186;2023-04-15T03:34:50;98851.75;;;6.34;100.00
49102;BME280;34913;47.520;19.186;2023-04-15T03:37:15;98848.97;;;6.35;100.00
49102;BME280;34913;47.520;19.186;2023-04-15T03:39:40;98857.59;;;6.37;100.00
49102;BME280;34913;47.520;19.186;2023-04-15T03:42:06;98863.31;;;6.42;100.00
49102;BME280;34913;47.520;19.186;2023-04-15T03:44:31;98857.72;;;6.36;100.00
49102;BME280;34913;47.520;19.186;2023-04-15T03:46:57;98867.16;;;6.38;100.00
49102;BME280;34913;47.520;19.186;2023-04-15T03:49:22;98860.72;;;6.31;100.00
49102;BME280;34913;47.520;19.186;2023-04-15T03:51:48;98863.63;;;6.28;100.00
49102;BME280;34913;47.520;19.186;2023-04-15T03:54:14;98864.34;;;6.30;100.00
49102;BME280;34913;47.520;19.186;2023-04-15T03:56:40;98859.41;;;6.37;100.00
49102;BME280;34913;47.520;19.186;2023-04-15T03:59:06;98861.47;;;6.33;100.00
49102;BME280;34913;47.520;19.186;2023-04-15T04:01:31;98857.78;;;6.25;100.00
49102;BME280;34913;47.520;19.186;2023-04-15T04:03:56;98862.88;;;6.17;100.00
49102;BME280;34913;47.520;19.186;2023-04-15T04:06:22;98861.16;;;6.15;100.00
49102;BME280;34913;47.520;19.186;2023-04-15T04:08:47;98869.34;;;6.12;100.00
49102;BME280;34913;47.520;19.186;2023-04-15T04:11:13;98869.91;;;6.16;100.00
49102;BME280;34913;47.520;19.186;2023-04-15T04:13:39;98864.63;;;6.16;100.00
49102;BME280;34913;47.520;19.186;2023-04-15T04:16:05;98864.63;;;6.16;100.00
49102;BME280;34913;47.520;19.186;2023-04-15T04:18:31;98867.88;;;6.20;100.00
49102;BME280;34913;47.520;19.186;2023-04-15T04:20:57;98863.31;;;6.22;100.00
49102;BME280;34913;47.520;19.186;2023-04-15T04:23:22;98862.94;;;6.26;100.00
49102;BME280;34913;47.520;19.186;2023-04-15T04:25:48;98857.47;;;6.39;100.00
49102;BME280;34913;47.520;19.186;2023-04-15T04:28:13;98855.97;;;6.46;100.00
49102;BME280;34913;47.520;19.186;2023-04-15T04:30:39;98859.22;;;6.50;100.00
49102;BME280;34913;47.520;19.186;2023-04-15T04:33:05;98856.31;;;6.53;100.00
49102;BME280;34913;47.520;19.186;2023-04-15T04:35:30;98854.56;;;6.63;100.00
49102;BME280;34913;47.520;19.186;2023-04-15T04:37:59;98854.63;;;6.72;100.00
49102;BME280;34913;47.520;19.186;2023-04-15T04:40:25;98856.63;;;6.80;100.00
49102;BME280;34913;47.520;19.186;2023-04-15T04:42:52;98852.50;;;6.87;100.00
49102;BME280;34913;47.520;19.186;2023-04-15T04:45:17;98858.34;;;6.91;100.00
49102;BME280;34913;47.520;19.186;2023-04-15T04:47:44;98857.09;;;6.95;100.00
49102;BME280;34913;47.520;19.186;2023-04-15T04:50:11;98850.06;;;7.05;100.00
49102;BME280;34913;47.520;19.186;2023-04-15T04:52:36;98850.91;;;7.06;100.00
49102;BME280;34913;47.520;19.186;2023-04-15T04:55:02;98857.06;;;7.16;100.00
49102;BME280;34913;47.520;19.186;2023-04-15T04:57:28;98852.81;;;7.34;100.00
49102;BME280;34913;47.520;19.186;2023-04-15T04:59:53;98853.00;;;7.52;100.00
49102;BME280;34913;47.520;19.186;2023-04-15T05:02:19;98854.84;;;7.71;100.00
49102;BME280;34913;47.520;19.186;2023-04-15T05:04:44;98853.91;;;8.01;100.00
49102;BME280;34913;47.520;19.186;2023-04-15T05:07:10;98863.94;;;8.36;100.00
49102;BME280;34913;47.520;19.186;2023-04-15T05:09:35;98856.50;;;8.68;98.62
49102;BME280;34913;47.520;19.186;2023-04-15T05:12:02;98854.41;;;8.82;95.53
49102;BME280;34913;47.520;19.186;2023-04-15T05:14:28;98865.16;;;9.17;95.30
49102;BME280;34913;47.520;19.186;2023-04-15T05:16:53;98863.31;;;9.28;92.96
49102;BME280;34913;47.520;19.186;2023-04-15T05:19:19;98855.56;;;9.07;92.50
49102;BME280;34913;47.520;19.186;2023-04-15T05:21:44;98862.94;;;8.66;92.99
49102;BME280;34913;47.520;19.186;2023-04-15T05:24:10;98859.47;;;8.56;94.12
49102;BME280;34913;47.520;19.186;2023-04-15T05:26:35;98862.53;;;8.51;94.72
49102;BME280;34913;47.520;19.186;2023-04-15T05:29:01;98861.84;;;8.49;95.81
49102;BME280;34913;47.520;19.186;2023-04-15T05:31:26;98861.41;;;8.63;95.19
49102;BME280;34913;47.520;19.186;2023-04-15T05:33:52;98857.78;;;8.64;94.88
49102;BME280;34913;47.520;19.186;2023-04-15T05:36:18;98863.84;;;8.84;94.02
49102;BME280;34913;47.520;19.186;2023-04-15T05:38:43;98862.72;;;8.97;94.73
49102;BME280;34913;47.520;19.186;2023-04-15T05:41:08;98872.91;;;9.01;94.45
49102;BME280;34913;47.520;19.186;2023-04-15T05:43:34;98873.94;;;9.18;91.49
49102;BME280;34913;47.520;19.186;2023-04-15T05:45:59;98873.06;;;9.27;90.05
49102;BME280;34913;47.520;19.186;2023-04-15T05:48:25;98879.41;;;9.44;90.44
49102;BME280;34913;47.520;19.186;2023-04-15T05:50:50;98877.81;;;9.23;89.94
49102;BME280;34913;47.520;19.186;2023-04-15T05:53:16;98876.28;;;9.21;92.46
49102;BME280;34913;47.520;19.186;2023-04-15T05:55:41;98874.63;;;9.20;90.56
49102;BME280;34913;47.520;19.186;2023-04-15T05:58:06;98880.94;;;9.09;89.35
49102;BME280;34913;47.520;19.186;2023-04-15T06:00:32;98888.78;;;8.91;91.76
49102;BME280;34913;47.520;19.186;2023-04-15T06:02:57;98889.13;;;8.59;94.34
49102;BME280;34913;47.520;19.186;2023-04-15T06:05:23;98894.72;;;8.47;96.19
49102;BME280;34913;47.520;19.186;2023-04-15T06:07:49;98893.84;;;8.27;96.22
49102;BME280;34913;47.520;19.186;2023-04-15T06:10:14;98895.94;;;8.33;97.38
49102;BME280;34913;47.520;19.186;2023-04-15T06:12:40;98900.97;;;8.46;96.95
49102;BME280;34913;47.520;19.186;2023-04-15T06:15:06;98902.34;;;8.50;98.14
49102;BME280;34913;47.520;19.186;2023-04-15T06:17:34;98908.47;;;8.50;95.07
49102;BME280;34913;47.520;19.186;2023-04-15T06:19:59;98910.56;;;8.56;95.14
49102;BME280;34913;47.520;19.186;2023-04-15T06:22:24;98914.19;;;8.36;95.23
49102;BME280;34913;47.520;19.186;2023-04-15T06:24:50;98909.31;;;8.41;96.65
49102;BME280;34913;47.520;19.186;2023-04-15T06:27:16;98907.09;;;8.36;96.72
49102;BME280;34913;47.520;19.186;2023-04-15T06:29:42;98915.72;;;8.48;97.08
49102;BME280;34913;47.520;19.186;2023-04-15T06:32:07;98912.91;;;8.59;96.84
49102;BME280;34913;47.520;19.186;2023-04-15T06:34:32;98912.94;;;8.69;95.68
49102;BME280;34913;47.520;19.186;2023-04-15T06:36:58;98912.94;;;8.69;95.75
49102;BME280;34913;47.520;19.186;2023-04-15T06:39:24;98915.16;;;8.64;94.38
49102;BME280;34913;47.520;19.186;2023-04-15T06:41:50;98926.53;;;8.84;93.43
49102;BME280;34913;47.520;19.186;2023-04-15T06:44:16;98929.59;;;8.89;92.82
49102;BME280;34913;47.520;19.186;2023-04-15T06:46:43;98929.41;;;9.00;91.24
49102;BME280;34913;47.520;19.186;2023-04-15T06:49:09;98920.63;;;9.19;91.31
49102;BME280;34913;47.520;19.186;2023-04-15T06:51:34;98921.81;;;9.34;90.95
49102;BME280;34913;47.520;19.186;2023-04-15T06:54:00;98923.00;;;9.49;92.32
49102;BME280;34913;47.520;19.186;2023-04-15T06:56:26;98923.44;;;9.45;89.50
49102;BME280;34913;47.520;19.186;2023-04-15T06:58:52;98924.31;;;9.36;89.17
49102;BME280;34913;47.520;19.186;2023-04-15T07:01:18;98925.09;;;9.46;91.39
49102;BME280;34913;47.520;19.186;2023-04-15T07:03:43;98931.44;;;9.63;89.32
49102;BME280;34913;47.520;19.186;2023-04-15T07:06:09;98933.91;;;9.74;88.74
49102;BME280;34913;47.520;19.186;2023-04-15T07:08:34;98926.38;;;9.69;89.50
49102;BME280;34913;47.520;19.186;2023-04-15T07:11:00;98938.06;;;9.76;89.51
49102;BME280;34913;47.520;19.186;2023-04-15T07:13:26;98925.16;;;9.91;87.73
49102;BME280;34913;47.520;19.186;2023-04-15T07:15:51;98924.41;;;9.81;88.00
49102;BME280;34913;47.520;19.186;2023-04-15T07:18:17;98927.47;;;9.76;88.14
49102;BME280;34913;47.520;19.186;2023-04-15T07:20:42;98930.16;;;9.94;86.76
49102;BME280;34913;47.520;19.186;2023-04-15T07:23:08;98928.81;;;10.08;86.72
49102;BME280;34913;47.520;19.186;2023-04-15T07:25:33;98933.03;;;10.28;84.26
49102;BME280;34913;47.520;19.186;2023-04-15T07:27:59;98935.31;;;10.23;83.51
49102;BME280;34913;47.520;19.186;2023-04-15T07:30:25;98932.53;;;9.97;85.47
49102;BME280;34913;47.520;19.186;2023-04-15T07:32:50;98934.13;;;10.08;86.59
49102;BME280;34913;47.520;19.186;2023-04-15T07:35:15;98939.09;;;9.93;87.01
49102;BME280;34913;47.520;19.186;2023-04-15T07:37:41;98943.91;;;10.07;85.79
49102;BME280;34913;47.520;19.186;2023-04-15T07:40:09;98941.31;;;10.16;83.61
49102;BME280;34913;47.520;19.186;2023-04-15T07:42:35;98937.16;;;10.13;82.21
49102;BME280;34913;47.520;19.186;2023-04-15T07:45:00;98941.88;;;10.19;79.57
49102;BME280;34913;47.520;19.186;2023-04-15T07:47:26;98933.88;;;10.47;79.79
49102;BME280;34913;47.520;19.186;2023-04-15T07:49:51;98942.50;;;10.84;77.58
49102;BME280;34913;47.520;19.186;2023-04-15T07:52:17;98944.72;;;11.15;75.71
49102;BME280;34913;47.520;19.186;2023-04-15T07:54:44;98939.13;;;11.26;72.88
49102;BME280;34913;47.520;19.186;2023-04-15T07:57:09;98946.88;;;11.45;72.25
49102;BME280;34913;47.520;19.186;2023-04-15T07:59:35;98944.34;;;11.70;70.84
49102;BME280;34913;47.520;19.186;2023-04-15T08:02:01;98939.03;;;12.12;72.30
49102;BME280;34913;47.520;19.186;2023-04-15T08:04:26;98944.31;;;12.04;70.64
49102;BME280;34913;47.520;19.186;2023-04-15T08:06:52;98947.72;;;12.30;68.41
49102;BME280;34913;47.520;19.186;2023-04-15T08:09:18;98943.59;;;12.44;66.54
49102;BME280;34913;47.520;19.186;2023-04-15T08:11:43;98946.78;;;12.72;67.61
49102;BME280;34913;47.520;19.186;2023-04-15T08:14:09;98939.94;;;12.62;64.04
49102;BME280;34913;47.520;19.186;2023-04-15T08:16:35;98943.94;;;12.49;65.92
49102;BME280;34913;47.520;19.186;2023-04-15T08:19:01;98945.06;;;12.39;64.86
49102;BME280;34913;47.520;19.186;2023-04-15T08:21:26;98941.69;;;12.12;68.34
49102;BME280;34913;47.520;19.186;2023-04-15T08:23:54;98942.97;;;12.00;67.23
49102;BME280;34913;47.520;19.186;2023-04-15T08:26:20;98941.00;;;12.02;66.96
49102;BME280;34913;47.520;19.186;2023-04-15T08:28:46;98947.03;;;12.20;66.12
49102;BME280;34913;47.520;19.186;2023-04-15T08:31:16;98948.44;;;12.57;64.14
49102;BME280;34913;47.520;19.186;2023-04-15T08:33:42;98949.06;;;12.43;63.36
49102;BME280;34913;47.520;19.186;2023-04-15T08:36:08;98950.25;;;12.56;63.04
49102;BME280;34913;47.520;19.186;2023-04-15T08:38:34;98956.91;;;12.61;65.27
49102;BME280;34913;47.520;19.186;2023-04-15T08:41:03;98953.25;;;12.94;62.90
49102;BME280;34913;47.520;19.186;2023-04-15T08:43:41;98950.44;;;13.12;61.85
49102;BME280;34913;47.520;19.186;2023-04-15T08:46:12;98957.41;;;13.13;62.32
49102;BME280;34913;47.520;19.186;2023-04-15T08:48:37;98959.38;;;13.52;61.28
49102;BME280;34913;47.520;19.186;2023-04-15T08:51:05;98960.56;;;13.33;58.75
49102;BME280;34913;47.520;19.186;2023-04-15T08:53:31;98954.75;;;13.21;59.71
49102;BME280;34913;47.520;19.186;2023-04-15T08:55:59;98960.41;;;12.94;61.31
49102;BME280;34913;47.520;19.186;2023-04-15T08:58:28;98963.25;;;12.84;62.17
49102;BME280;34913;47.520;19.186;2023-04-15T09:00:55;98962.75;;;12.89;61.42
49102;BME280;34913;47.520;19.186;2023-04-15T09:03:21;98966.38;;;12.79;61.13
49102;BME280;34913;47.520;19.186;2023-04-15T09:05:49;98965.41;;;12.56;62.26
49102;BME280;34913;47.520;19.186;2023-04-15T09:08:15;98959.91;;;12.57;64.07
49102;BME280;34913;47.520;19.186;2023-04-15T09:10:40;98969.41;;;12.93;62.53
49102;BME280;34913;47.520;19.186;2023-04-15T09:13:06;98968.91;;;13.05;61.25
49102;BME280;34913;47.520;19.186;2023-04-15T09:15:32;98965.25;;;12.82;62.90
49102;BME280;34913;47.520;19.186;2023-04-15T09:17:57;98967.41;;;12.86;60.92
49102;BME280;34913;47.520;19.186;2023-04-15T09:20:23;98970.22;;;12.85;61.42
49102;BME280;34913;47.520;19.186;2023-04-15T09:22:49;98969.03;;;12.63;62.34
49102;BME280;34913;47.520;19.186;2023-04-15T09:27:59;98969.41;;;12.68;60.88
49102;BME280;34913;47.520;19.186;2023-04-15T09:30:26;98972.22;;;12.50;62.72
49102;BME280;34913;47.520;19.186;2023-04-15T09:33:00;98959.38;;;12.46;61.05
49102;BME280;34913;47.520;19.186;2023-04-15T09:35:26;98968.72;;;12.50;62.25
49102;BME280;34913;47.520;19.186;2023-04-15T09:38:00;98966.53;;;12.53;62.32
49102;BME280;34913;47.520;19.186;2023-04-15T09:40:44;98963.59;;;12.89;62.12
49102;BME280;34913;47.520;19.186;2023-04-15T09:43:10;98966.56;;;12.94;60.84
49102;BME280;34913;47.520;19.186;2023-04-15T09:45:46;98959.56;;;13.01;61.95
49102;BME280;34913;47.520;19.186;2023-04-15T09:48:23;98965.03;;;13.40;57.79
49102;BME280;34913;47.520;19.186;2023-04-15T09:50:51;98965.44;;;13.77;59.52
49102;BME280;34913;47.520;19.186;2023-04-15T09:53:22;98962.88;;;13.44;57.00
49102;BME280;34913;47.520;19.186;2023-04-15T09:55:57;98967.56;;;13.34;58.25
49102;BME280;34913;47.520;19.186;2023-04-15T09:58:30;98960.75;;;13.31;57.83
49102;BME280;34913;47.520;19.186;2023-04-15T10:00:57;98968.00;;;13.62;57.18
49102;BME280;34913;47.520;19.186;2023-04-15T10:03:26;98969.69;;;13.55;56.08
49102;BME280;34913;47.520;19.186;2023-04-15T10:05:54;98975.47;;;13.75;56.29
49102;BME280;34913;47.520;19.186;2023-04-15T10:08:22;98971.75;;;13.84;57.35
49102;BME280;34913;47.520;19.186;2023-04-15T10:10:48;98970.97;;;13.75;56.21
49102;BME280;34913;47.520;19.186;2023-04-15T10:13:17;98977.50;;;13.56;56.90
49102;BME280;34913;47.520;19.186;2023-04-15T10:15:44;98972.19;;;13.48;58.41
49102;BME280;34913;47.520;19.186;2023-04-15T10:18:15;98976.56;;;13.25;58.15
49102;BME280;34913;47.520;19.186;2023-04-15T10:20:45;98977.53;;;13.16;59.64
49102;BME280;34913;47.520;19.186;2023-04-15T10:23:11;98969.38;;;13.09;59.98
49102;BME280;34913;47.520;19.186;2023-04-15T10:25:37;98972.41;;;13.06;60.01
49102;BME280;34913;47.520;19.186;2023-04-15T10:28:05;98981.41;;;12.97;59.87
49102;BME280;34913;47.520;19.186;2023-04-15T10:30:32;98976.19;;;12.63;60.29
49102;BME280;34913;47.520;19.186;2023-04-15T10:32:58;98981.88;;;12.84;61.57
49102;BME280;34913;47.520;19.186;2023-04-15T10:35:24;98984.06;;;12.80;61.59
49102;BME280;34913;47.520;19.186;2023-04-15T10:37:50;98968.41;;;12.77;61.84
49102;BME280;34913;47.520;19.186;2023-04-15T10:40:29;98971.88;;;12.78;63.31
49102;BME280;34913;47.520;19.186;2023-04-15T10:42:57;98974.72;;;12.84;63.62
49102;BME280;34913;47.520;19.186;2023-04-15T10:45:27;98977.72;;;12.90;63.05
49102;BME280;34913;47.520;19.186;2023-04-15T10:47:57;98980.56;;;13.12;61.63
49102;BME280;34913;47.520;19.186;2023-04-15T10:50:25;98975.38;;;13.19;62.19
49102;BME280;34913;47.520;19.186;2023-04-15T10:52:51;98979.56;;;13.13;62.86
49102;BME280;34913;47.520;19.186;2023-04-15T10:55:25;98986.38;;;13.08;61.17
49102;BME280;34913;47.520;19.186;2023-04-15T10:57:54;98986.22;;;12.85;60.54
49102;BME280;34913;47.520;19.186;2023-04-15T11:00:28;98991.53;;;12.77;60.79
49102;BME280;34913;47.520;19.186;2023-04-15T11:02:58;98996.19;;;12.91;60.07
49102;BME280;34913;47.520;19.186;2023-04-15T11:08:03;99008.69;;;12.74;58.92
49102;BME280;34913;47.520;19.186;2023-04-15T11:12:58;98998.69;;;12.76;59.66
49102;BME280;34913;47.520;19.186;2023-04-15T11:20:42;99017.94;;;12.46;65.43
49102;BME280;34913;47.520;19.186;2023-04-15T11:23:09;99012.06;;;12.26;65.44
49102;BME280;34913;47.520;19.186;2023-04-15T11:25:35;99020.03;;;12.18;67.56
49102;BME280;34913;47.520;19.186;2023-04-15T11:28:04;99014.38;;;12.21;67.17
49102;BME280;34913;47.520;19.186;2023-04-15T11:30:35;99024.34;;;12.19;65.42
49102;BME280;34913;47.520;19.186;2023-04-15T11:33:11;99015.38;;;12.20;64.77
49102;BME280;34913;47.520;19.186;2023-04-15T11:35:37;99015.59;;;12.43;64.71
49102;BME280;34913;47.520;19.186;2023-04-15T11:38:12;99014.97;;;12.57;64.59
49102;BME280;34913;47.520;19.186;2023-04-15T11:40:41;99005.34;;;12.72;65.75
49102;BME280;34913;47.520;19.186;2023-04-15T11:43:12;99011.69;;;12.96;64.49
49102;BME280;34913;47.520;19.186;2023-04-15T11:45:54;99016.34;;;12.85;63.86
49102;BME280;34913;47.520;19.186;2023-04-15T11:48:28;99010.16;;;12.77;63.70
49102;BME280;34913;47.520;19.186;2023-04-15T11:51:00;99015.13;;;12.64;65.37
49102;BME280;34913;47.520;19.186;2023-04-15T11:53:42;99019.78;;;12.62;63.86
49102;BME280;34913;47.520;19.186;2023-04-15T11:56:11;99022.28;;;12.63;62.62
49102;BME280;34913;47.520;19.186;2023-04-15T11:58:40;99028.44;;;12.64;62.86
49102;BME280;34913;47.520;19.186;2023-04-15T12:01:07;99020.94;;;12.51;62.36
49102;BME280;34913;47.520;19.186;2023-04-15T12:06:28;99023.59;;;12.51;63.09
49102;BME280;34913;47.520;19.186;2023-04-15T12:09:11;99021.31;;;12.56;63.85
49102;BME280;34913;47.520;19.186;2023-04-15T12:14:11;99018.75;;;12.38;63.36
49102;BME280;34913;47.520;19.186;2023-04-15T12:17:00;99019.94;;;12.44;63.28
49102;BME280;34913;47.520;19.186;2023-04-15T12:19:45;99017.78;;;12.55;64.22
49102;BME280;34913;47.520;19.186;2023-04-15T12:22:15;99016.69;;;12.82;63.29
49102;BME280;34913;47.520;19.186;2023-04-15T12:24:43;99026.81;;;12.95;63.01
49102;BME280;34913;47.520;19.186;2023-04-15T12:27:11;99025.34;;;13.25;61.75
49102;BME280;34913;47.520;19.186;2023-04-15T12:29:39;99023.31;;;13.03;62.03
49102;BME280;34913;47.520;19.186;2023-04-15T12:32:09;99021.19;;;12.98;60.97
49102;BME280;34913;47.520;19.186;2023-04-15T12:34:49;99036.50;;;12.88;62.19
49102;BME280;34913;47.520;19.186;2023-04-15T12:37:15;99029.97;;;12.74;63.26
49102;BME280;34913;47.520;19.186;2023-04-15T12:39:43;99037.94;;;12.66;63.28
49102;BME280;34913;47.520;19.186;2023-04-15T12:42:09;99033.91;;;12.54;65.79
49102;BME280;34913;47.520;19.186;2023-04-15T12:44:36;99030.91;;;12.41;64.42
49102;BME280;34913;47.520;19.186;2023-04-15T12:47:02;99030.75;;;12.42;65.42
49102;BME280;34913;47.520;19.186;2023-04-15T12:49:28;99030.06;;;12.40;65.76
49102;BME280;34913;47.520;19.186;2023-04-15T12:51:55;99042.50;;;12.32;66.05
49102;BME280;34913;47.520;19.186;2023-04-15T12:54:20;99039.16;;;12.29;65.89
49102;BME280;34913;47.520;19.186;2023-04-15T12:56:47;99046.97;;;12.23;66.20
49102;BME280;34913;47.520;19.186;2023-04-15T12:59:14;99049.81;;;12.29;64.43
49102;BME280;34913;47.520;19.186;2023-04-15T13:01:40;99050.19;;;12.43;63.85
49102;BME280;34913;47.520;19.186;2023-04-15T13:04:05;99057.72;;;12.55;62.76
49102;BME280;34913;47.520;19.186;2023-04-15T13:06:31;99064.03;;;12.54;64.14
49102;BME280;34913;47.520;19.186;2023-04-15T13:09:00;99057.72;;;12.55;63.09